sensor_id;sensor_type;location;lat;lon;timestamp;pressure;altitude;pressure_sealevel;temperature;humidity
11011;BME280;5558;42.702;23.178;2023-07-16T00:00:22;93962.66;;;21.73;100.00
11011;BME280;5558;42.702;23.178;2023-07-16T00:02:49;93947.03;;;21.58;100.00
11011;BME280;5558;42.702;23.178;2023-07-16T00:05:15;93958.69;;;21.80;100.00
11011;BME280;5558;42.702;23.178;2023-07-16T00:07:42;93959.31;;;21.76;100.00
11011;BME280;5558;42.702;23.178;2023-07-16T00:10:09;93966.47;;;21.72;100.00
11011;BME280;5558;42.702;23.178;2023-07-16T00:12:37;93963.84;;;21.55;100.00
11011;BME280;5558;42.702;23.178;2023-07-16T00:15:05;93960.84;;;21.57;100.00
11011;BME280;5558;42.702;23.178;2023-07-16T00:17:32;93961.16;;;21.55;100.00
11011;BME280;5558;42.702;23.178;2023-07-16T00:19:58;93964.56;;;21.44;100.00
11011;BME280;5558;42.702;23.178;2023-07-16T00:22:25;93954.78;;;21.31;100.00
11011;BME280;5558;42.702;23.178;2023-07-16T00:24:52;93960.94;;;21.31;100.00
11011;BME280;5558;42.702;23.178;2023-07-16T00:27:19;93955.28;;;21.24;100.00
11011;BME280;5558;42.702;23.178;2023-07-16T00:29:47;93961.47;;;21.25;100.00
11011;BME280;5558;42.702;23.178;2023-07-16T00:32:13;93942.03;;;21.11;100.00
11011;BME280;5558;42.702;23.178;2023-07-16T00:34:40;93964.47;;;21.23;100.00
11011;BME280;5558;42.702;23.178;2023-07-16T00:37:09;93965.28;;;21.24;100.00
11011;BME280;5558;42.702;23.178;2023-07-16T00:39:36;93965.13;;;21.20;100.00
11011;BME280;5558;42.702;23.178;2023-07-16T00:42:03;93969.72;;;21.20;100.00
11011;BME280;5558;42.702;23.178;2023-07-16T00:44:30;93972.56;;;21.15;100.00
11011;BME280;5558;42.702;23.178;2023-07-16T00:46:58;93968.75;;;21.16;100.00
11011;BME280;5558;42.702;23.178;2023-07-16T00:49:25;93963.22;;;21.21;100.00
11011;BME280;5558;42.702;23.178;2023-07-16T00:51:53;93966.22;;;21.19;100.00
11011;BME280;5558;42.702;23.178;2023-07-16T00:54:21;93952.72;;;21.28;100.00
11011;BME280;5558;42.702;23.178;2023-07-16T00:56:48;93953.53;;;21.28;100.00
11011;BME280;5558;42.702;23.178;2023-07-16T00:59:16;93961.97;;;21.18;100.00
11011;BME280;5558;42.702;23.178;2023-07-16T01:01:43;93961.69;;;21.03;100.00
11011;BME280;5558;42.702;23.178;2023-07-16T01:04:11;93966.56;;;21.09;100.00
11011;BME280;5558;42.702;23.178;2023-07-16T01:06:40;93957.06;;;21.12;100.00
11011;BME280;5558;42.702;23.178;2023-07-16T01:09:09;93958.66;;;20.96;100.00
11011;BME280;5558;42.702;23.178;2023-07-16T01:11:38;93966.28;;;20.94;100.00
11011;BME280;5558;42.702;23.178;2023-07-16T01:14:06;93959.31;;;20.93;100.00
11011;BME280;5558;42.702;23.178;2023-07-16T01:16:34;93961.53;;;20.99;100.00
11011;BME280;5558;42.702;23.178;2023-07-16T01:19:01;93959.78;;;21.03;100.00
11011;BME280;5558;42.702;23.178;2023-07-16T01:21:35;93956.78;;;21.05;100.00
11011;BME280;5558;42.702;23.178;2023-07-16T01:24:13;93967.53;;;21.05;100.00
11011;BME280;5558;42.702;23.178;2023-07-16T01:27:08;93966.31;;;20.85;100.00
11011;BME280;5558;42.702;23.178;2023-07-16T01:29:46;93965.19;;;20.86;100.00
11011;BME280;5558;42.702;23.178;2023-07-16T01:32:17;93969.38;;;20.58;100.00
11011;BME280;5558;42.702;23.178;2023-07-16T01:34:44;93968.41;;;20.63;100.00
11011;BME280;5558;42.702;23.178;2023-07-16T01:37:12;93962.84;;;20.76;100.00
11011;BME280;5558;42.702;23.178;2023-07-16T01:39:39;93959.34;;;20.76;100.00
11011;BME280;5558;42.702;23.178;2023-07-16T01:42:06;93964.09;;;20.70;100.00
11011;BME280;5558;42.702;23.178;2023-07-16T01:44:33;93979.31;;;20.66;100.00
11011;BME280;5558;42.702;23.178;2023-07-16T01:47:10;93972.31;;;20.74;100.00
11011;BME280;5558;42.702;23.178;2023-07-16T01:49:38;93973.28;;;20.69;100.00
11011;BME280;5558;42.702;23.178;2023-07-16T01:52:06;93971.88;;;20.72;100.00
11011;BME280;5558;42.702;23.178;2023-07-16T01:54:34;93970.09;;;20.84;100.00
11011;BME280;5558;42.702;23.178;2023-07-16T01:57:01;93968.72;;;20.70;100.00
11011;BME280;5558;42.702;23.178;2023-07-16T01:59:28;93982.31;;;20.82;100.00
11011;BME280;5558;42.702;23.178;2023-07-16T02:01:54;93986.41;;;20.88;100.00
11011;BME280;5558;42.702;23.178;2023-07-16T02:04:22;93971.38;;;20.78;100.00
11011;BME280;5558;42.702;23.178;2023-07-16T02:06:49;93974.84;;;20.79;100.00
11011;BME280;5558;42.702;23.178;2023-07-16T02:09:16;93963.63;;;20.77;100.00
11011;BME280;5558;42.702;23.178;2023-07-16T02:11:43;93964.72;;;20.76;100.00
11011;BME280;5558;42.702;23.178;2023-07-16T02:14:09;93962.50;;;20.78;100.00
11011;BME280;5558;42.702;23.178;2023-07-16T02:16:36;93955.44;;;20.65;100.00
11011;BME280;5558;42.702;23.178;2023-07-16T02:19:03;93969.69;;;20.56;100.00
11011;BME280;5558;42.702;23.178;2023-07-16T02:21:31;93977.28;;;20.29;100.00
11011;BME280;5558;42.702;23.178;2023-07-16T02:23:58;93979.97;;;20.29;100.00
11011;BME280;5558;42.702;23.178;2023-07-16T02:26:25;93982.34;;;20.30;100.00
11011;BME280;5558;42.702;23.178;2023-07-16T02:28:51;93982.81;;;20.24;100.00
11011;BME280;5558;42.702;23.178;2023-07-16T02:31:18;93986.75;;;20.35;100.00
11011;BME280;5558;42.702;23.178;2023-07-16T02:33:45;93985.50;;;20.24;100.00
11011;BME280;5558;42.702;23.178;2023-07-16T02:36:11;94015.31;;;19.97;100.00
11011;BME280;5558;42.702;23.178;2023-07-16T02:38:39;94029.69;;;20.01;100.00
11011;BME280;5558;42.702;23.178;2023-07-16T02:41:06;94031.44;;;19.97;100.00
11011;BME280;5558;42.702;23.178;2023-07-16T02:43:33;94016.28;;;20.09;100.00
11011;BME280;5558;42.702;23.178;2023-07-16T02:46:00;94008.50;;;19.99;100.00
11011;BME280;5558;42.702;23.178;2023-07-16T02:48:26;94010.72;;;20.06;100.00
11011;BME280;5558;42.702;23.178;2023-07-16T02:50:53;94019.28;;;20.08;100.00
11011;BME280;5558;42.702;23.178;2023-07-16T02:53:20;94004.25;;;19.90;100.00
11011;BME280;5558;42.702;23.178;2023-07-16T02:55:48;94004.59;;;20.05;100.00
11011;BME280;5558;42.702;23.178;2023-07-16T02:58:14;94011.53;;;19.98;100.00
11011;BME280;5558;42.702;23.178;2023-07-16T03:00:41;94005.66;;;19.96;100.00
11011;BME280;5558;42.702;23.178;2023-07-16T03:03:08;94011.69;;;20.10;100.00
11011;BME280;5558;42.702;23.178;2023-07-16T03:05:35;94001.59;;;20.07;100.00
11011;BME280;5558;42.702;23.178;2023-07-16T03:08:01;93999.22;;;20.05;100.00
11011;BME280;5558;42.702;23.178;2023-07-16T03:10:29;94008.84;;;20.15;100.00
11011;BME280;5558;42.702;23.178;2023-07-16T03:12:57;93994.97;;;20.21;100.00
11011;BME280;5558;42.702;23.178;2023-07-16T03:15:24;94001.63;;;20.24;100.00
11011;BME280;5558;42.702;23.178;2023-07-16T03:17:50;93993.56;;;20.24;100.00
11011;BME280;5558;42.702;23.178;2023-07-16T03:20:17;93995.13;;;20.25;100.00
11011;BME280;5558;42.702;23.178;2023-07-16T03:22:44;93983.44;;;20.38;100.00
11011;BME280;5558;42.702;23.178;2023-07-16T03:25:11;93991.81;;;20.53;100.00
11011;BME280;5558;42.702;23.178;2023-07-16T03:27:37;93988.59;;;20.94;100.00
11011;BME280;5558;42.702;23.178;2023-07-16T03:30:07;93969.97;;;21.35;100.00
11011;BME280;5558;42.702;23.178;2023-07-16T03:32:34;93966.72;;;21.88;100.00
11011;BME280;5558;42.702;23.178;2023-07-16T03:35:00;93965.47;;;22.56;100.00
11011;BME280;5558;42.702;23.178;2023-07-16T03:37:27;93965.41;;;23.09;100.00
11011;BME280;5558;42.702;23.178;2023-07-16T03:39:54;93973.41;;;23.74;100.00
11011;BME280;5558;42.702;23.178;2023-07-16T03:42:20;93964.28;;;24.43;100.00
11011;BME280;5558;42.702;23.178;2023-07-16T03:44:48;93974.22;;;25.06;100.00
11011;BME280;5558;42.702;23.178;2023-07-16T03:47:18;93972.72;;;25.83;100.00
11011;BME280;5558;42.702;23.178;2023-07-16T03:49:45;93987.63;;;26.74;100.00
11011;BME280;5558;42.702;23.178;2023-07-16T03:52:12;93987.44;;;27.43;98.53
11011;BME280;5558;42.702;23.178;2023-07-16T03:54:38;93989.22;;;28.26;89.07
11011;BME280;5558;42.702;23.178;2023-07-16T03:57:06;93989.06;;;29.01;79.09
11011;BME280;5558;42.702;23.178;2023-07-16T03:59:33;93993.44;;;29.75;73.45
11011;BME280;5558;42.702;23.178;2023-07-16T04:02:00;94000.66;;;30.48;67.79
11011;BME280;5558;42.702;23.178;2023-07-16T04:04:28;94006.88;;;31.10;62.75
11011;BME280;5558;42.702;23.178;2023-07-16T04:06:54;94009.84;;;31.80;59.27
11011;BME280;5558;42.702;23.178;2023-07-16T04:09:21;94009.50;;;32.38;55.27
11011;BME280;5558;42.702;23.178;2023-07-16T04:11:48;93995.00;;;32.76;53.45
11011;BME280;5558;42.702;23.178;2023-07-16T04:14:15;94010.19;;;33.05;52.11
11011;BME280;5558;42.702;23.178;2023-07-16T04:16:42;94010.91;;;33.26;50.73
11011;BME280;5558;42.702;23.178;2023-07-16T04:19:09;94007.41;;;33.19;50.63
11011;BME280;5558;42.702;23.178;2023-07-16T04:21:37;94017.53;;;34.60;46.86
11011;BME280;5558;42.702;23.178;2023-07-16T04:24:05;94015.53;;;35.38;44.00
11011;BME280;5558;42.702;23.178;2023-07-16T04:26:32;94020.66;;;35.70;43.90
11011;BME280;5558;42.702;23.178;2023-07-16T04:28:59;94020.00;;;36.42;41.27
11011;BME280;5558;42.702;23.178;2023-07-16T04:31:26;94021.16;;;36.91;38.18
11011;BME280;5558;42.702;23.178;2023-07-16T04:33:53;94021.16;;;37.33;38.76
11011;BME280;5558;42.702;23.178;2023-07-16T04:36:19;94023.06;;;37.56;38.51
11011;BME280;5558;42.702;23.178;2023-07-16T04:38:48;94014.69;;;37.59;37.88
11011;BME280;5558;42.702;23.178;2023-07-16T04:41:16;94022.00;;;38.41;36.00
11011;BME280;5558;42.702;23.178;2023-07-16T04:43:43;94025.78;;;38.95;35.13
11011;BME280;5558;42.702;23.178;2023-07-16T04:46:09;94031.94;;;39.31;34.19
11011;BME280;5558;42.702;23.178;2023-07-16T04:48:37;94027.97;;;39.45;33.99
11011;BME280;5558;42.702;23.178;2023-07-16T04:51:04;94027.66;;;39.71;33.41
11011;BME280;5558;42.702;23.178;2023-07-16T04:53:30;94031.72;;;40.08;32.58
11011;BME280;5558;42.702;23.178;2023-07-16T04:55:59;94039.19;;;40.36;31.44
11011;BME280;5558;42.702;23.178;2023-07-16T04:58:25;94035.84;;;40.54;31.71
11011;BME280;5558;42.702;23.178;2023-07-16T05:00:52;94044.91;;;40.67;31.17
11011;BME280;5558;42.702;23.178;2023-07-16T05:03:19;94041.84;;;40.77;30.43
11011;BME280;5558;42.702;23.178;2023-07-16T05:05:46;94041.63;;;41.18;30.31
11011;BME280;5558;42.702;23.178;2023-07-16T05:08:12;94041.75;;;41.71;29.62
11011;BME280;5558;42.702;23.178;2023-07-16T05:10:39;94035.16;;;41.56;29.70
11011;BME280;5558;42.702;23.178;2023-07-16T05:13:07;94035.94;;;42.08;29.07
11011;BME280;5558;42.702;23.178;2023-07-16T05:15:34;94028.03;;;42.28;28.98
11011;BME280;5558;42.702;23.178;2023-07-16T05:18:01;94033.81;;;42.43;28.26
11011;BME280;5558;42.702;23.178;2023-07-16T05:20:27;94044.09;;;42.55;28.03
11011;BME280;5558;42.702;23.178;2023-07-16T05:22:54;94034.25;;;42.81;27.67
11011;BME280;5558;42.702;23.178;2023-07-16T05:25:21;94038.19;;;42.53;27.33
11011;BME280;5558;42.702;23.178;2023-07-16T05:27:47;94037.91;;;42.60;27.86
11011;BME280;5558;42.702;23.178;2023-07-16T05:30:16;94037.41;;;43.10;27.05
11011;BME280;5558;42.702;23.178;2023-07-16T05:32:42;94047.00;;;42.52;27.52
11011;BME280;5558;42.702;23.178;2023-07-16T05:35:09;94047.69;;;42.74;27.41
11011;BME280;5558;42.702;23.178;2023-07-16T05:37:36;94026.44;;;43.16;26.51
11011;BME280;5558;42.702;23.178;2023-07-16T05:40:04;94044.97;;;43.10;26.79
11011;BME280;5558;42.702;23.178;2023-07-16T05:42:31;94048.78;;;40.94;29.32
11011;BME280;5558;42.702;23.178;2023-07-16T05:44:57;94041.19;;;40.36;30.13
11011;BME280;5558;42.702;23.178;2023-07-16T05:47:25;94045.41;;;41.46;29.43
11011;BME280;5558;42.702;23.178;2023-07-16T05:49:52;94055.00;;;42.10;27.72
11011;BME280;5558;42.702;23.178;2023-07-16T05:52:19;94050.53;;;42.92;27.33
11011;BME280;5558;42.702;23.178;2023-07-16T05:54:45;94054.03;;;43.23;26.67
11011;BME280;5558;42.702;23.178;2023-07-16T05:57:12;94061.53;;;42.47;26.83
11011;BME280;5558;42.702;23.178;2023-07-16T05:59:39;94064.38;;;42.03;27.20
11011;BME280;5558;42.702;23.178;2023-07-16T06:02:06;94066.44;;;41.90;27.96
11011;BME280;5558;42.702;23.178;2023-07-16T06:04:34;94053.78;;;40.87;29.22
11011;BME280;5558;42.702;23.178;2023-07-16T06:07:01;94059.59;;;42.04;27.71
11011;BME280;5558;42.702;23.178;2023-07-16T06:09:28;94057.28;;;42.02;27.56
11011;BME280;5558;42.702;23.178;2023-07-16T06:11:55;94058.81;;;40.17;30.19
11011;BME280;5558;42.702;23.178;2023-07-16T06:14:22;94055.25;;;41.60;28.19
11011;BME280;5558;42.702;23.178;2023-07-16T06:16:48;94042.34;;;41.66;28.14
11011;BME280;5558;42.702;23.178;2023-07-16T06:19:15;94042.91;;;40.92;29.18
11011;BME280;5558;42.702;23.178;2023-07-16T06:21:43;94057.91;;;41.85;27.78
11011;BME280;5558;42.702;23.178;2023-07-16T06:24:10;94053.47;;;40.85;28.76
11011;BME280;5558;42.702;23.178;2023-07-16T06:26:37;94049.28;;;39.76;30.12
11011;BME280;5558;42.702;23.178;2023-07-16T06:29:04;94050.00;;;39.52;31.00
11011;BME280;5558;42.702;23.178;2023-07-16T06:31:31;94044.84;;;40.45;30.17
11011;BME280;5558;42.702;23.178;2023-07-16T06:33:58;94046.69;;;40.86;29.19
11011;BME280;5558;42.702;23.178;2023-07-16T06:36:25;94043.84;;;40.39;30.08
11011;BME280;5558;42.702;23.178;2023-07-16T06:38:53;94036.50;;;39.09;32.36
11011;BME280;5558;42.702;23.178;2023-07-16T06:41:19;94031.06;;;38.57;32.84
11011;BME280;5558;42.702;23.178;2023-07-16T06:43:46;94033.03;;;38.89;32.59
11011;BME280;5558;42.702;23.178;2023-07-16T06:46:13;94045.31;;;39.20;31.79
11011;BME280;5558;42.702;23.178;2023-07-16T06:48:39;94037.66;;;38.63;32.55
11011;BME280;5558;42.702;23.178;2023-07-16T06:51:06;94039.69;;;39.08;32.84
11011;BME280;5558;42.702;23.178;2023-07-16T06:53:33;94036.22;;;37.88;33.48
11011;BME280;5558;42.702;23.178;2023-07-16T06:56:01;94037.19;;;38.97;32.08
11011;BME280;5558;42.702;23.178;2023-07-16T06:58:31;94048.13;;;39.33;31.51
11011;BME280;5558;42.702;23.178;2023-07-16T07:00:58;94029.50;;;38.88;31.67
11011;BME280;5558;42.702;23.178;2023-07-16T07:03:26;94038.16;;;39.64;31.51
11011;BME280;5558;42.702;23.178;2023-07-16T07:05:53;94036.31;;;39.00;32.39
11011;BME280;5558;42.702;23.178;2023-07-16T07:08:20;94032.38;;;38.53;32.41
11011;BME280;5558;42.702;23.178;2023-07-16T07:10:48;94036.75;;;38.50;32.30
11011;BME280;5558;42.702;23.178;2023-07-16T07:13:16;94029.66;;;38.17;34.01
11011;BME280;5558;42.702;23.178;2023-07-16T07:15:43;94024.22;;;38.30;33.45
11011;BME280;5558;42.702;23.178;2023-07-16T07:18:09;94036.34;;;37.02;34.57
11011;BME280;5558;42.702;23.178;2023-07-16T07:20:38;94029.09;;;38.06;33.81
11011;BME280;5558;42.702;23.178;2023-07-16T07:23:05;94024.34;;;37.32;34.40
11011;BME280;5558;42.702;23.178;2023-07-16T07:25:33;94026.13;;;36.03;36.58
11011;BME280;5558;42.702;23.178;2023-07-16T07:27:59;93997.34;;;35.14;38.15
11011;BME280;5558;42.702;23.178;2023-07-16T07:30:27;94021.50;;;35.67;37.91
11011;BME280;5558;42.702;23.178;2023-07-16T07:32:54;94016.31;;;35.05;38.92
11011;BME280;5558;42.702;23.178;2023-07-16T07:35:21;94017.88;;;34.69;39.98
11011;BME280;5558;42.702;23.178;2023-07-16T07:37:48;94014.63;;;33.68;43.20
11011;BME280;5558;42.702;23.178;2023-07-16T07:40:14;94016.59;;;33.74;42.72
11011;BME280;5558;42.702;23.178;2023-07-16T07:42:41;94011.50;;;33.69;44.87
11011;BME280;5558;42.702;23.178;2023-07-16T07:45:08;94016.91;;;33.83;47.01
11011;BME280;5558;42.702;23.178;2023-07-16T07:47:37;93989.81;;;33.06;45.42
11011;BME280;5558;42.702;23.178;2023-07-16T07:50:04;93995.72;;;32.90;44.66
11011;BME280;5558;42.702;23.178;2023-07-16T07:52:31;94005.63;;;32.46;47.09
11011;BME280;5558;42.702;23.178;2023-07-16T07:54:57;94003.25;;;31.88;49.17
11011;BME280;5558;42.702;23.178;2023-07-16T07:57:24;94009.50;;;31.92;51.13
11011;BME280;5558;42.702;23.178;2023-07-16T07:59:51;94005.19;;;32.08;50.40
11011;BME280;5558;42.702;23.178;2023-07-16T08:02:22;94015.00;;;32.13;48.58
11011;BME280;5558;42.702;23.178;2023-07-16T08:04:50;94006.72;;;31.85;49.78
11011;BME280;5558;42.702;23.178;2023-07-16T08:07:17;94006.19;;;31.27;52.93
11011;BME280;5558;42.702;23.178;2023-07-16T08:09:47;94008.38;;;30.93;55.03
11011;BME280;5558;42.702;23.178;2023-07-16T08:12:14;94001.09;;;31.29;53.04
11011;BME280;5558;42.702;23.178;2023-07-16T08:14:41;94000.13;;;32.10;51.77
11011;BME280;5558;42.702;23.178;2023-07-16T08:17:08;94013.81;;;31.96;50.05
11011;BME280;5558;42.702;23.178;2023-07-16T08:19:34;94002.09;;;32.52;50.92
11011;BME280;5558;42.702;23.178;2023-07-16T08:22:03;94004.34;;;33.06;47.63
11011;BME280;5558;42.702;23.178;2023-07-16T08:24:29;94008.75;;;32.27;49.53
11011;BME280;5558;42.702;23.178;2023-07-16T08:26:56;94002.84;;;32.21;50.25
11011;BME280;5558;42.702;23.178;2023-07-16T08:29:23;94003.25;;;32.09;51.29
11011;BME280;5558;42.702;23.178;2023-07-16T08:31:50;94007.16;;;32.26;51.07
11011;BME280;5558;42.702;23.178;2023-07-16T08:34:17;94009.84;;;31.83;54.08
11011;BME280;5558;42.702;23.178;2023-07-16T08:36:43;94005.50;;;31.58;52.18
11011;BME280;5558;42.702;23.178;2023-07-16T08:39:12;94009.00;;;31.51;54.31
11011;BME280;5558;42.702;23.178;2023-07-16T08:41:39;93998.94;;;32.01;53.09
11011;BME280;5558;42.702;23.178;2023-07-16T08:44:08;94006.00;;;32.19;56.95
11011;BME280;5558;42.702;23.178;2023-07-16T08:46:35;94005.09;;;31.45;55.64
11011;BME280;5558;42.702;23.178;2023-07-16T08:49:02;94000.03;;;31.68;54.77
11011;BME280;5558;42.702;23.178;2023-07-16T08:51:31;93997.38;;;31.96;55.35
11011;BME280;5558;42.702;23.178;2023-07-16T08:53:59;94001.66;;;31.87;54.84
11011;BME280;5558;42.702;23.178;2023-07-16T08:56:28;93992.13;;;31.32;53.62
11011;BME280;5558;42.702;23.178;2023-07-16T08:58:55;93990.53;;;31.24;55.67
11011;BME280;5558;42.702;23.178;2023-07-16T09:01:22;93996.88;;;31.42;57.40
11011;BME280;5558;42.702;23.178;2023-07-16T09:03:49;94001.16;;;31.39;57.31
11011;BME280;5558;42.702;23.178;2023-07-16T09:06:16;93989.72;;;31.20;56.08
11011;BME280;5558;42.702;23.178;2023-07-16T09:08:43;93983.06;;;31.10;60.70
11011;BME280;5558;42.702;23.178;2023-07-16T09:11:11;93983.69;;;30.79;60.75
11011;BME280;5558;42.702;23.178;2023-07-16T09:13:45;93976.59;;;30.67;59.40
11011;BME280;5558;42.702;23.178;2023-07-16T09:16:12;93981.63;;;30.65;65.19
11011;BME280;5558;42.702;23.178;2023-07-16T09:18:42;93976.09;;;30.55;60.72
11011;BME280;5558;42.702;23.178;2023-07-16T09:21:09;93974.72;;;30.82;63.16
11011;BME280;5558;42.702;23.178;2023-07-16T09:23:36;93978.00;;;31.23;60.86
11011;BME280;5558;42.702;23.178;2023-07-16T09:26:04;93976.38;;;31.04;59.70
11011;BME280;5558;42.702;23.178;2023-07-16T09:28:31;93978.66;;;30.84;56.90
11011;BME280;5558;42.702;23.178;2023-07-16T09:31:05;93973.63;;;30.97;57.31
11011;BME280;5558;42.702;23.178;2023-07-16T09:33:33;93975.59;;;31.00;57.55
11011;BME280;5558;42.702;23.178;2023-07-16T09:36:00;93965.84;;;31.10;59.31
11011;BME280;5558;42.702;23.178;2023-07-16T09:38:28;93982.03;;;31.50;57.73
11011;BME280;5558;42.702;23.178;2023-07-16T09:40:56;93980.50;;;31.73;54.03
11011;BME280;5558;42.702;23.178;2023-07-16T09:43:22;93977.19;;;31.08;56.30
11011;BME280;5558;42.702;23.178;2023-07-16T09:45:49;93972.16;;;31.31;59.67
11011;BME280;5558;42.702;23.178;2023-07-16T09:48:18;93974.84;;;31.10;60.03
11011;BME280;5558;42.702;23.178;2023-07-16T09:50:50;93971.69;;;31.01;56.58
11011;BME280;5558;42.702;23.178;2023-07-16T09:53:19;93972.13;;;30.38;57.88
11011;BME280;5558;42.702;23.178;2023-07-16T09:55:48;93965.78;;;30.95;55.48
11011;BME280;5558;42.702;23.178;2023-07-16T09:58:17;93973.75;;;31.29;53.70
11011;BME280;5558;42.702;23.178;2023-07-16T10:00:45;93964.31;;;31.16;53.98
11011;BME280;5558;42.702;23.178;2023-07-16T10:03:12;93961.91;;;30.96;57.23
11011;BME280;5558;42.702;23.178;2023-07-16T10:05:42;93964.00;;;31.35;56.57
11011;BME280;5558;42.702;23.178;2023-07-16T10:08:16;93960.16;;;31.60;55.28
11011;BME280;5558;42.702;23.178;2023-07-16T10:10:44;93966.41;;;31.78;57.04
11011;BME280;5558;42.702;23.178;2023-07-16T10:13:13;93960.53;;;31.59;53.81
11011;BME280;5558;42.702;23.178;2023-07-16T10:15:50;93955.03;;;31.48;54.46
11011;BME280;5558;42.702;23.178;2023-07-16T10:18:26;93961.69;;;31.58;51.23
11011;BME280;5558;42.702;23.178;2023-07-16T10:21:04;93957.31;;;31.22;54.80
11011;BME280;5558;42.702;23.178;2023-07-16T10:23:39;93956.38;;;30.82;56.76
11011;BME280;5558;42.702;23.178;2023-07-16T10:26:06;93948.22;;;30.89;53.20
11011;BME280;5558;42.702;23.178;2023-07-16T10:28:34;93954.56;;;31.22;52.67
11011;BME280;5558;42.702;23.178;2023-07-16T10:31:02;93946.09;;;31.72;51.95
11011;BME280;5558;42.702;23.178;2023-07-16T10:33:29;93960.94;;;31.75;49.84
11011;BME280;5558;42.702;23.178;2023-07-16T10:35:56;93950.72;;;31.40;52.07
11011;BME280;5558;42.702;23.178;2023-07-16T10:38:25;93945.28;;;31.72;50.87
11011;BME280;5558;42.702;23.178;2023-07-16T10:40:52;93948.44;;;31.98;50.53
11011;BME280;5558;42.702;23.178;2023-07-16T10:43:19;93949.59;;;32.29;51.04
11011;BME280;5558;42.702;23.178;2023-07-16T10:45:46;93952.75;;;32.45;51.84
11011;BME280;5558;42.702;23.178;2023-07-16T10:48:13;93949.25;;;32.20;51.35
11011;BME280;5558;42.702;23.178;2023-07-16T10:50:40;93950.81;;;32.14;46.88
11011;BME280;5558;42.702;23.178;2023-07-16T10:53:07;93949.59;;;32.50;46.59
11011;BME280;5558;42.702;23.178;2023-07-16T10:55:35;93942.50;;;32.67;48.86
11011;BME280;5558;42.702;23.178;2023-07-16T10:58:04;93940.63;;;32.29;47.65
11011;BME280;5558;42.702;23.178;2023-07-16T11:00:32;93940.19;;;31.53;48.78
11011;BME280;5558;42.702;23.178;2023-07-16T11:02:59;93949.16;;;31.36;50.84
11011;BME280;5558;42.702;23.178;2023-07-16T11:05:25;93942.53;;;31.47;47.18
11011;BME280;5558;42.702;23.178;2023-07-16T11:07:52;93937.88;;;31.93;49.28
11011;BME280;5558;42.702;23.178;2023-07-16T11:10:19;93932.78;;;32.45;46.30
11011;BME280;5558;42.702;23.178;2023-07-16T11:12:50;93938.94;;;32.91;44.95
11011;BME280;5558;42.702;23.178;2023-07-16T11:15:18;93933.97;;;33.37;43.86
11011;BME280;5558;42.702;23.178;2023-07-16T11:17:48;93927.19;;;33.63;43.73
11011;BME280;5558;42.702;23.178;2023-07-16T11:20:19;93923.66;;;33.66;41.89
11011;BME280;5558;42.702;23.178;2023-07-16T11:22:46;93916.91;;;33.05;42.13
11011;BME280;5558;42.702;23.178;2023-07-16T11:25:13;93911.50;;;32.94;41.61
11011;BME280;5558;42.702;23.178;2023-07-16T11:27:41;93918.53;;;32.95;44.86
11011;BME280;5558;42.702;23.178;2023-07-16T11:30:10;93921.03;;;32.44;44.89
11011;BME280;5558;42.702;23.178;2023-07-16T11:32:41;93923.03;;;32.01;44.36
11011;BME280;5558;42.702;23.178;2023-07-16T11:35:12;93911.25;;;32.22;44.80
11011;BME280;5558;42.702;23.178;2023-07-16T11:37:42;93920.25;;;32.15;43.78
11011;BME280;5558;42.702;23.178;2023-07-16T11:40:17;93910.03;;;32.58;40.57
11011;BME280;5558;42.702;23.178;2023-07-16T11:42:44;93902.47;;;32.87;44.52
11011;BME280;5558;42.702;23.178;2023-07-16T11:45:20;93910.09;;;32.23;44.62
11011;BME280;5558;42.702;23.178;2023-07-16T11:47:48;93916.38;;;31.88;44.09
11011;BME280;5558;42.702;23.178;2023-07-16T11:50:15;93914.78;;;32.44;41.61
11011;BME280;5558;42.702;23.178;2023-07-16T11:52:51;93904.81;;;32.92;42.56
11011;BME280;5558;42.702;23.178;2023-07-16T11:55:18;93907.88;;;33.11;40.97
11011;BME280;5558;42.702;23.178;2023-07-16T11:57:45;93905.50;;;33.13;41.05
11011;BME280;5558;42.702;23.178;2023-07-16T12:00:13;93911.75;;;33.21;40.99
11011;BME280;5558;42.702;23.178;2023-07-16T12:02:41;93914.47;;;33.21;39.39
11011;BME280;5558;42.702;23.178;2023-07-16T12:05:08;93896.81;;;33.22;38.64
11011;BME280;5558;42.702;23.178;2023-07-16T12:07:35;93901.81;;;33.41;39.21
11011;BME280;5558;42.702;23.178;2023-07-16T12:10:03;93899.06;;;33.41;40.75
11011;BME280;5558;42.702;23.178;2023-07-16T12:12:30;93901.66;;;32.90;38.27
11011;BME280;5558;42.702;23.178;2023-07-16T12:14:57;93902.47;;;32.87;39.10
11011;BME280;5558;42.702;23.178;2023-07-16T12:17:24;93896.28;;;32.72;39.13
11011;BME280;5558;42.702;23.178;2023-07-16T12:19:52;93901.00;;;32.54;37.48
11011;BME280;5558;42.702;23.178;2023-07-16T12:22:18;93894.69;;;32.71;37.75
11011;BME280;5558;42.702;23.178;2023-07-16T12:24:46;93902.41;;;33.08;35.68
11011;BME280;5558;42.702;23.178;2023-07-16T12:27:14;93887.88;;;33.11;37.95
11011;BME280;5558;42.702;23.178;2023-07-16T12:29:40;93888.38;;;32.92;39.48
11011;BME280;5558;42.702;23.178;2023-07-16T12:32:07;93888.44;;;32.71;36.77
11011;BME280;5558;42.702;23.178;2023-07-16T12:34:34;93889.50;;;33.01;39.63
11011;BME280;5558;42.702;23.178;2023-07-16T12:37:03;93886.63;;;33.26;38.32
11011;BME280;5558;42.702;23.178;2023-07-16T12:39:30;93888.78;;;32.80;38.77
11011;BME280;5558;42.702;23.178;2023-07-16T12:41:56;93889.22;;;32.68;37.57
11011;BME280;5558;42.702;23.178;2023-07-16T12:44:23;93886.78;;;33.01;36.91
11011;BME280;5558;42.702;23.178;2023-07-16T12:46:50;93887.06;;;33.14;41.11
11011;BME280;5558;42.702;23.178;2023-07-16T12:49:16;93889.81;;;33.17;36.19
11011;BME280;5558;42.702;23.178;2023-07-16T12:51:43;93881.81;;;33.37;35.82
11011;BME280;5558;42.702;23.178;2023-07-16T12:54:11;93889.94;;;33.62;36.05
11011;BME280;5558;42.702;23.178;2023-07-16T12:56:38;93877.34;;;33.64;38.00
11011;BME280;5558;42.702;23.178;2023-07-16T12:59:05;93883.03;;;33.36;36.91